Walla Walla Regional Airport
KALW : now visible

Airfield :











YOU CAN JOIN US ON...

 
LOGIN :

Register | Disclaimer

   EN    FR    IT 

 









Legend :    VFR   Marginal VFR   IFR   Intensive IFR   Very Intensive IFR
Visi :
Ceiling :
>= 8 km
>= 3000ft
5 to 8 km
1000 to 3000 ft
1500m to 5 km
500 to 1000 ft
800 to 1500m
200 to 500 ft
< 800m
< 200 ft
Symbols :   Thunderstorms  Fog  Heavy snow  Heavy precipitations  Wind > 20 kt






- Airport Elevation : 1194 ft
- IATA code : ALW


KALW - Walla Walla Regional

CURRENT METAR :
  • 152253Z 31006KT 10SM SCT032 BKN044 OVC055 06/03 A3035 RMK AO2 RAB2158E21 SLP287 P0000 T00560033

EXPIRED METARs :
  • 152153Z 10008KT 10SM BKN030 BKN034 OVC048 05/02 A3033 RMK AO2 RAB35E45 SLP282 P0000 T00500022
  • 152128Z 02007KT 10SM OVC030 04/02 A3034 RMK AO2 T00440022
  • 152053Z 04006KT 10SM OVC024 04/02 A3035 RMK AO2 SLP286 60001 T00440017 56020

TAF KALW
Valid from the 15 at 22:00 until the 16 at 18:00 UTC


152215Z 1522/1618 15005KT P6SM VCSH BKN030 OVC045
FM160000 18003KT P6SM SCT080 BKN100
FM160800 20003KT 5SM BR SCT250
FM161300 21003KT 1/2SM FG OVC004
KZSE FIR / North America



MET'MAP, your aeronautical weather chart ! - Copyright ORBIFLY December 2007 - Disclaimer

ORBIFLY MET'MAP TEAM :

Programming & Development : Alexandra Zaïnal
Concept & original design : Baudouin d'Aumeries
Assistance for programming : Marc-Olivier Méhu
Technical & hardware support : Manuel Goepfert

Contact : metmap@orbifly.com




SOURCES & CREDITS :

   NOAA       Earth
Advisory